KBOS

General Edward Lawrence Logan International Airport

Boston, Massachusetts, USA
KBOS 202339Z 2100/2206 32015KT P6SM OVC040 FM210200 31017G29KT P6SM BKN050 FM211800 31019G33KT P6SM BKN045 FM220500 30014G25KT P6SM SCT050
Issued Valid From Valid To
Jan-20 @ 23:39 UTC
(2 hours ago)
Jan-21 @ 00:00 UTC
(an hour ago)
Jan-22 @ 06:00 UTC
(-1 days ago)
Jan-21 @ 00:00 to Jan-21 @ 02:00
KBOS 202339Z 2100/2206 32015KT P6SM OVC040
Wind Visibility Clouds
320° at 15 knots Greater than 6 miles
  • Overcast at 4,000' AGL
From Jan-21 @ 02:00 to Jan-21 @ 18:00
FM210200 31017G29KT P6SM BKN050
Wind Visibility Clouds
310° at 17 knots
 Gusting to 29 knots
Greater than 6 miles
  • Broken at 5,000' AGL
From Jan-21 @ 18:00 to Jan-22 @ 05:00
FM211800 31019G33KT P6SM BKN045
Wind Visibility Clouds
310° at 19 knots
 Gusting to 33 knots
Greater than 6 miles
  • Broken at 4,500' AGL
From Jan-22 @ 05:00 to Jan-22 @ 06:00
FM220500 30014G25KT P6SM SCT050
Wind Visibility Clouds
300° at 14 knots
 Gusting to 25 knots
Greater than 6 miles
  • Scattered at 5,000' AGL
KBOS 202339Z 2100/2206 32015KT P6SM OVC040 FM210200 31017G29KT P6SM BKN050 FM211800 31019G33KT P6SM BKN045 FM220500 30014G25KT P6SM SCT050
Issued Jan-20 @ 23:39 UTC
(2 hours ago)
Valid From Jan-21 @ 00:00 UTC
(an hour ago)
Valid To Jan-22 @ 06:00 UTC
(-1 days ago)
Jan-21 @ 00:00 - Jan-21 @ 02:00
Wind Visibility
320° at 15 knots Greater than 6 miles
Clouds
  • Overcast at 4,000' AGL
From Jan-21 @ 02:00 - Jan-21 @ 18:00
Wind Visibility
310° at 17 knots
 Gusting to 29 knots
Greater than 6 miles
Clouds
  • Broken at 5,000' AGL
From Jan-21 @ 18:00 - Jan-22 @ 05:00
Wind Visibility
310° at 19 knots
 Gusting to 33 knots
Greater than 6 miles
Clouds
  • Broken at 4,500' AGL
From Jan-22 @ 05:00 - Jan-22 @ 06:00
Wind Visibility
300° at 14 knots
 Gusting to 25 knots
Greater than 6 miles
Clouds
  • Scattered at 5,000' AGL